• Join FlightAware (Why Join?)
  • Login
  • US Flag 
10:10PM EDT


 

Airport Tracker/Info


-or-


 

Live Flight TrackerFlight Track Log ✈ JBU301 ✈ 19-Jul-2013 ✈ KJFK - KFLL

Flight Track Log - Related Links

Times and Time Zones

All times are in EDT time to prevent confusion due to time zone crossing. See the JBU301 flight status page for this flight to view local times or setup timezone preferences in your user account.

Time Position Orientation Groundspeed Altitude Reporting Facility
EDT Latitude Longitude Course Direction KTS MPH feet Rate Location/Type
03:03PM 40.6111 -73.7644 146° Southeast 164 189 1,300  Level New York Center
03:04PM 40.5836 -73.7031 121° Southeast 187 215 2,000 1,680 Climbing New York Center
03:05PM 40.3540 -73.5167 180° South  Level FlightAware Approximate
03:05PM 40.5486 -73.6006 114° Southeast 254 292 4,800  Level New York Center
03:06PM 40.2672 -73.4336 159° South  Level FlightAware Approximate
03:06PM 40.5136 -73.4981 114° Southeast 296 341 7,700  Level New York Center
03:07PM 40.1814 -73.3371 146° Southeast  Level FlightAware Approximate
03:07PM 40.4439 -73.4492 152° Southeast 289 333 10,200  Level New York Center
03:08PM 40.0866 -73.2529 146° Southeast  Level FlightAware Approximate
03:08PM 40.3486 -73.4261 170° South 282 325 11,600  Level New York Center
03:09PM 40.2533 -73.3981 167° South 320 368 13,500 1,860 Climbing New York Center
03:10PM 40.1600 -73.3728 168° South 371 427 15,400 1,740 Climbing New York Center
03:12PM 39.9419 -73.4375 193° South 377 434 19,100 1,680 Climbing Washington Center
03:13PM 39.8539 -73.5239 217° Southwest 372 428 20,800 1,440 Climbing Washington Center
03:14PM 39.7636 -73.6047 215° Southwest 391 450 22,100 1,260 Climbing Washington Center
03:15PM 39.6669 -73.6883 214° Southwest 414 476 23,400 1,260 Climbing Washington Center
03:16PM 39.5706 -73.7717 214° Southwest 414 476 24,700 1,200 Climbing Washington Center
03:17PM 39.4736 -73.8547 213° Southwest 419 482 25,900 1,140 Climbing Washington Center
03:18PM 39.3708 -73.9406 213° Southwest 428 493 27,000 960 Climbing Washington Center
03:19PM 39.2697 -74.0258 213° Southwest 439 505 27,900 840 Climbing Washington Center
03:20PM 39.1667 -74.1139 214° Southwest 439 505 28,800 900 Climbing Washington Center
03:21PM 39.0614 -74.2017 213° Southwest 444 511 29,800 1,020 Climbing Washington Center
03:22PM 38.9561 -74.2917 214° Southwest 449 517 30,900 1,080 Climbing Washington Center
03:23PM 38.8508 -74.3789 213° Southwest 454 522 32,000 1,080 Climbing Washington Center
03:24PM 38.7453 -74.4658 213° Southwest 454 522 33,200 1,140 Climbing Washington Center
03:25PM 38.6461 -74.5497 213° Southwest 448 516 34,300 1,020 Climbing Washington Center
03:26PM 38.5425 -74.6336 212° Southwest 448 516 35,300 840 Climbing Washington Center
03:27PM 38.4389 -74.7197 213° Southwest 448 516 36,000 300 Climbing Washington Center
03:28PM 38.3353 -74.8056 213° Southwest 448 516 36,000  Level Washington Center
03:29PM 38.2314 -74.8914 213° Southwest 448 516 36,000  Level Washington Center
03:30PM 38.1297 -74.9794 214° Southwest 453 521 36,000  Level Washington Center
03:31PM 38.0258 -75.0644 213° Southwest 453 521 36,000  Level Washington Center
03:32PM 37.9200 -75.1494 212° Southwest 453 521 36,000  Level Washington Center
03:33PM 37.8075 -75.2158 205° Southwest 453 521 36,000  Level Washington Center
03:34PM 37.6931 -75.2822 205° Southwest 453 521 36,000  Level Washington Center
03:35PM 37.5783 -75.3456 204° Southwest 453 521 36,000  Level Washington Center
03:36PM 37.4639 -75.4114 205° Southwest 453 521 36,000  Level Washington Center
03:37PM 37.3492 -75.4717 203° Southwest 458 527 36,000 -60 Level Washington Center
03:38PM 37.2367 -75.5372 205° Southwest 458 527 35,900  Descending Washington Center
03:39PM 37.1219 -75.5997 203° Southwest 458 527 36,000  Climbing Washington Center
03:40PM 37.0072 -75.6622 204° Southwest 458 527 36,000  Level Washington Center
03:41PM 36.8925 -75.7217 203° Southwest 458 527 36,000  Level Washington Center
03:42PM 36.7631 -75.7889 203° Southwest 458 527 36,000  Level Washington Center
03:43PM 36.6461 -75.8561 205° Southwest 458 527 36,000  Level Washington Center
03:44PM 36.5331 -75.9203 205° Southwest 458 527 36,000 -60 Level Washington Center
03:45PM 36.4203 -75.9817 204° Southwest 458 527 35,900  Descending Washington Center
03:46PM 36.3053 -76.0431 203° Southwest 453 521 36,000  Climbing Washington Center
03:47PM 36.1925 -76.1042 204° Southwest 453 521 36,000  Level Washington Center
03:48PM 36.0775 -76.1650 203° Southwest 453 521 36,000  Level Washington Center
03:49PM 35.9644 -76.2283 204° Southwest 453 521 36,000 -60 Level Washington Center
03:50PM 35.8514 -76.2864 203° Southwest 448 516 35,900  Descending Washington Center
03:51PM 35.7364 -76.3444 202° Southwest 448 516 36,000  Climbing Washington Center
03:52PM 35.6233 -76.4097 205° Southwest 448 516 36,000  Level Washington Center
03:53PM 35.5061 -76.4672 202° Southwest 448 516 36,000  Level Washington Center
03:54PM 35.3928 -76.5297 204° Southwest 448 516 36,000  Level Washington Center
03:55PM 35.2903 -76.5844 204° Southwest 443 510 36,000  Level Washington Center
03:56PM 35.1792 -76.6442 204° Southwest 443 510 36,000  Level Washington Center
03:57PM 35.0511 -76.7108 203° Southwest 443 510 36,000 -60 Level Washington Center
03:58PM 34.9358 -76.7678 202° Southwest 443 510 35,900  Descending Washington Center
03:59PM 34.8206 -76.8292 204° Southwest 448 516 36,000  Climbing Washington Center
04:00PM 34.7053 -76.8881 203° Southwest 448 516 36,000  Level Washington Center
04:01PM 34.5856 -76.9417 200° South 453 521 36,000  Level Washington Center
04:02PM 34.4603 -76.9675 190° South 453 521 36,000  Level Washington Center
04:03PM 34.3367 -77.0006 192° South 453 521 36,000  Level Washington Center
04:04PM 34.2133 -77.0286 191° South 453 521 36,000  Level Washington Center
04:05PM 34.0919 -77.0667 195° South 453 521 36,000  Level Washington Center
04:06PM 33.9828 -77.1047 196° South 453 521 36,000  Level Washington Center
04:07PM 33.8614 -77.1450 195° South 453 521 36,000 -60 Level Washington Center
04:08PM 33.7378 -77.1853 195° South 460 529 35,900  Descending Washington Center
04:10PM 33.4739 -77.2856 198° South 450 518 36,000  Climbing Jacksonville Center
04:11PM 33.3572 -77.3325 199° South 455 524 36,000 -60 Level Jacksonville Center
04:12PM 33.2361 -77.3822 199° South 455 524 35,900 -60 Descending Jacksonville Center
04:13PM 33.1239 -77.4389 203° Southwest 455 524 35,900  Level Jacksonville Center
04:14PM 33.0119 -77.5028 206° Southwest 450 518 36,000  Climbing Jacksonville Center
04:15PM 32.9000 -77.5711 207° Southwest 450 518 36,000  Level Jacksonville Center
04:16PM 32.7881 -77.6372 206° Southwest 455 524 36,000  Level Jacksonville Center
04:17PM 32.6739 -77.7031 206° Southwest 455 524 36,000 -60 Level Jacksonville Center
04:18PM 32.5639 -77.7683 207° Southwest 455 524 35,900  Descending Jacksonville Center
04:19PM 32.4494 -77.8314 205° Southwest 455 524 36,000  Climbing Jacksonville Center
04:20PM 32.3353 -77.9017 207° Southwest 455 524 35,900  Descending Jacksonville Center
04:21PM 32.2231 -77.9644 205° Southwest 455 524 36,000  Climbing Jacksonville Center
04:22PM 32.1108 -78.0317 207° Southwest 455 524 36,000  Level Jacksonville Center
04:23PM 31.9942 -78.0892 203° Southwest 455 524 36,000 540 Level Jacksonville Center
04:24PM 31.8814 -78.1442 202° Southwest 450 518 37,100 960 Climbing Jacksonville Center
04:25PM 31.7667 -78.2011 203° Southwest 450 518 38,000 420 Climbing Jacksonville Center
04:26PM 31.6439 -78.2708 206° Southwest 455 524 38,000  Level Jacksonville Center
04:27PM 31.5289 -78.3228 201° Southwest 458 527 38,000  Level Jacksonville Center
04:28PM 31.4078 -78.3847 204° Southwest 465 535 38,000  Level Jacksonville Center
04:29PM 31.2931 -78.4414 203° Southwest 457 526 38,000  Level Jacksonville Center
04:30PM 31.1800 -78.4953 202° Southwest 453 521 38,000  Level Jacksonville Center
04:31PM 31.0631 -78.5517 202° Southwest 454 522 38,000  Level Jacksonville Center
04:32PM 30.9564 -78.6050 203° Southwest 457 526 38,000  Level Jacksonville Center
04:33PM 30.8433 -78.6633 204° Southwest 457 526 38,000  Level Jacksonville Center
04:35PM 30.5903 -78.7853 203° Southwest 475 547 38,000  Level Miami Center
04:36PM 30.4750 -78.8408 203° Southwest 475 547 38,000  Level Miami Center
04:37PM 30.3556 -78.8964 202° Southwest 480 552 38,000 -60 Level Miami Center
04:38PM 30.2461 -78.9519 204° Southwest 467 537 37,900  Descending Miami Center
04:39PM 30.1286 -79.0047 201° Southwest 453 521 38,000  Climbing Miami Center
04:40PM 30.0025 -79.0742 205° Southwest 448 516 38,000  Level Miami Center
04:41PM 29.8869 -79.1267 202° Southwest 453 521 38,000  Level Miami Center
04:42PM 29.7633 -79.1694 197° South 460 529 38,000  Level Miami Center
04:43PM 29.6397 -79.2028 193° South 460 529 38,000  Level Miami Center
04:44PM 29.5161 -79.2333 192° South 460 529 38,000  Level Miami Center
04:45PM 29.3906 -79.2617 191° South 460 529 38,000  Level Miami Center
04:46PM 29.2692 -79.2922 192° South 460 529 38,000  Level Miami Center
04:47PM 29.1475 -79.3275 194° South 455 524 38,000  Level Miami Center
04:48PM 29.0239 -79.3581 192° South 455 524 38,000  Level Miami Center
04:49PM 28.8983 -79.3861 191° South 455 524 38,000  Level Miami Center
04:50PM 28.7725 -79.4164 192° South 455 524 38,000  Level Miami Center
04:51PM 28.6447 -79.4464 192° South 455 524 38,000  Level Miami Center
04:52PM 28.5208 -79.4814 194° South 455 524 38,000  Level Miami Center
04:53PM 28.3931 -79.5092 191° South 460 529 38,000  Level Miami Center
04:54PM 28.2672 -79.5417 193° South 465 535 38,000  Level Miami Center
04:55PM 28.1436 -79.5717 192° South 465 535 38,000 -300 Level Miami Center
04:56PM 28.0156 -79.6039 193° South 471 542 37,500 -1,200 Descending Miami Center
04:57PM 27.8878 -79.6336 192° South 471 542 35,700 -1,980 Descending Miami Center
04:58PM 27.7622 -79.6447 184° South 460 529 33,600 -2,520 Descending Miami Center
04:59PM 27.6411 -79.6417 179° South 477 549 30,700 -2,820 Descending Miami Center
05:00PM 27.5094 -79.6431 181° South 482 555 28,000 -2,700 Descending Miami Center
05:01PM 27.3633 -79.6419 180° South 474 545 25,300 -2,640 Descending Miami Center
05:02PM 27.2361 -79.6389 179° South 468 539 22,800 -2,400 Descending Miami Center
05:03PM 27.1150 -79.6383 180° South 445 512 20,500 -2,340 Descending Miami Center
05:04PM 27.0106 -79.6358 179° South 424 488 18,200 -2,340 Descending Miami Center
05:05PM 26.8978 -79.6356 180° South 414 476 15,900 -2,460 Descending Miami Center
05:06PM 26.7928 -79.6656 194° South 391 450 13,300 -2,400 Descending Miami Center
05:07PM 26.6939 -79.7097 202° Southwest 378 435 11,100 -1,500 Descending Miami Center
05:08PM 26.6114 -79.7519 205° Southwest 352 405 10,400 -780 Descending Miami Center
05:09PM 26.5483 -79.7806 202° Southwest 271 312 9,700 -960 Descending Miami Center
05:10PM 26.4767 -79.8158 204° Southwest 254 292 8,500 -840 Descending Miami Center
05:11PM 26.4050 -79.8489 202° Southwest 277 319 8,000 -300 Descending Miami Center
05:12PM 26.3411 -79.8961 214° Southwest 273 314 8,000  Level Miami Center
05:13PM 26.2858 -79.9503 221° Southwest 275 316 8,000 -60 Level Miami Center
05:14PM 26.2303 -80.0042 221° Southwest 246 283 7,900 -600 Descending Miami Center
05:15PM 26.1856 -80.0494 222° Southwest 249 287 6,900 -540 Descending Miami Center
05:16PM 26.1589 -80.1206 247° West 244 281 6,900 -480 Level Miami Center
05:18PM 26.1467 -80.2033 261° West 217 250 5,900 -900 Descending Miami Center
05:18PM 26.1514 -80.2592 275° West 225 259 5,100 -960 Descending Miami Center
05:20PM 26.1478 -80.3331 267° West 191 220 4,000 -480 Descending Miami Center
05:21PM 26.1400 -80.3953 262° West 175 201 4,000  Level Miami Center
05:22PM 26.0961 -80.3964 181° South 175 201 4,000 -480 Level Miami Center
05:23PM 26.0742 -80.3494 117° Southeast 181 208 3,100 -960 Descending Miami Center
05:24PM 26.0756 -80.2939 88° East 185 213 2,100 -900 Descending Miami Center
05:25PM 26.0747 -80.2431 91° East 162 186 1,300 -780 Descending Miami Center
05:26PM 26.0756 -80.2014 89° East 126 145 600 -720 Descending Miami Center
05:28PM 26.0667 -80.1500 103° East  Level FlightAware Approximate
05:35PM 26.0726 -80.1527 103° East  Level Estimated